Sharon, PA

5:41 AM EST on December 28, 2014 (GMT -0500)
New Castle Municipal | Change Station
CLOSE
Current Station
Airport
Location: New Castle,
Elevation: 1073 ft
Nearby Weather Stations

Elev 1073 ft 41.03 °N, 80.41 °W | Updated 6 minutes ago

Rain
Rain
37 °F
Feels Like 30 °F
N
10
Wind Variable Wind from NW

Today
High -- | Low -- °F
--% Chance of Precip.
Yesterday
High -- | Low -- °F
Precip. -- in
7:46 AM 5:00 PM
Waxing Crescent, 46% visible
Pressure 29.98 in
Visibility 2.0 miles
Clouds
Windchill 30 °F
Dew Point 37 °F
Humidity 100%
Rainfall 0.24 in
Snow Depth Not available.
UV Not available.
Pollen .10 out of 12
Air Quality Not available.
Flu Activity Not available.
SPECI KUCP 281035Z AUTO 32009KT 2SM -RA BR 03/03 A2998 RMK AO2 TSNO RAE07B26 P0000 $

More Conditions Fewer Conditions

Pressure 29.98 in
Visibility 2.0 miles
Clouds
Windchill 30 °F
Dew Point 37 °F
Humidity 100%
Rainfall 0.24 in
Snow Depth Not available.
UV Not available.
Pollen .10 out of 12
Air Quality Not available.
Flu Activity Not available.
SPECI KUCP 281035Z AUTO 32009KT 2SM -RA BR 03/03 A2998 RMK AO2 TSNO RAE07B26 P0000 $

More Conditions Fewer Conditions

10-Day Weather Forecast

Almanac

Astronomy

Dec. 28, 2014 Rise Set
Actual Time
Civil Twilight
Nautical Twilight
Astronomical Twilight
Moon
Length of Visible Light
Length of Day
Tomorrow will be .
, % of the Moon is Illuminated

Today's Extremes

State Highs State Lows

Community

WunderPhotos

Upload Photos

1,781,232 photos uploaded!

WunderBlogs® & News

Nearby

Air Quality

  Air Quality AQ Index Pollutant
Not available.

Snow Depth

Station Depth Elevation

Earthquake Activity

City Distance Mag. Time & Date
Minimum magnitude displayed is 2.5.

Coastal Water Temperatures

Place Temperature

Nearby Weather Stations